Data for 06/28/2018

Time Sea-Level Adjusted Pressure Absolute Pressure Temperature Relative Humidity Dew Point   
(mb) (inHg) (mb) (inHg) (C) (F) (%) (C) (F)
00:05 1014 29.94 844 24.92 18.6 65.5 53 8.9 48
00:10 1014 29.94 844 24.92 18.1 64.6 55 9.1 48.4
00:15 1014 29.94 844 24.92 17.7 63.8 57 9.1 48.3
00:20 1014 29.94 844 24.92 17.5 63.5 57 9.1 48.3
00:25 1014 29.94 844 24.92 17.2 63 59 9.3 48.7
00:30 1014 29.94 844 24.92 16.7 62.1 58 8.5 47.3
00:35 1014 29.94 844 24.92 16.2 61.2 56 7.4 45.4
00:40 1015 29.97 844 24.92 15.9 60.6 55 6.9 44.4
00:45 1015 29.97 844 24.92 15.6 60.1 56 6.9 44.3
00:50 1015 29.97 844 24.92 15.4 59.6 57 6.9 44.4
00:55 1015 29.97 844 24.92 15.2 59.4 57 6.7 44.1
01:00 1015 29.97 844 24.92 15.2 59.3 55 6.3 43.4
01:05 1015 29.97 844 24.92 15.2 59.3 55 6.3 43.3
01:10 1015 29.97 844 24.92 15.1 59.2 55 6.2 43.2
01:15 1015 29.97 844 24.92 15 58.9 56 6.5 43.6
01:20 1015 29.97 844 24.92 15 59 56 6.4 43.4
01:25 1015 29.97 844 24.92 15 58.9 55 6.2 43.2
01:30 1015 29.97 844 24.92 14.9 58.9 56 6.3 43.3
01:35 1015 29.97 844 24.92 14.9 58.7 56 6.2 43.2
01:40 1015 29.97 844 24.92 14.9 58.8 56 6.3 43.4
01:45 1015 29.97 844 24.92 15 58.9 56 6.4 43.5
01:50 1015 29.97 844 24.92 15.2 59.4 55 6.3 43.3
01:55 1015 29.97 844 24.92 15 59 57 6.6 43.9
02:00 1015 29.97 844 24.92 14.7 58.4 57 6.2 43.2
02:05 1015 29.97 844 24.92 14.4 58 57 6.2 43.1
02:10 1015 29.97 844 24.92 14.3 57.7 59 6.5 43.7
02:15 1015 29.97 844 24.92 14.1 57.3 60 6.4 43.5
02:20 1015 29.97 844 24.92 13.9 57 60 6.4 43.5
02:25 1015 29.97 844 24.92 13.7 56.7 60 6.2 43.2
02:30 1015 29.97 844 24.92 13.8 56.8 59 6 42.7
02:35 1015 29.97 844 24.92 13.9 56.9 61 6.5 43.7
02:40 1014 29.94 844 24.92 13.6 56.5 62 6.4 43.6
02:45 1014 29.94 844 24.92 14.1 57.4 60 6.5 43.7
02:50 1014 29.94 844 24.92 14.7 58.4 60 7.1 44.7
02:55 1014 29.94 844 24.92 14.4 58 60 6.9 44.4
03:00 1014 29.94 844 24.92 14.2 57.5 61 6.8 44.3
03:05 1014 29.94 844 24.92 14 57.1 60 6.5 43.7
03:10 1014 29.94 844 24.92 13.8 56.9 61 6.5 43.7
03:15 1014 29.94 844 24.92 13.5 56.3 64 6.8 44.3
03:20 1014 29.94 843 24.89 13.1 55.6 66 7 44.6
03:25 1014 29.94 843 24.89 13 55.3 65 6.7 44
03:30 1014 29.94 843 24.89 13.1 55.7 65 6.9 44.3
03:35 1014 29.94 844 24.92 13.2 55.7 63 6.4 43.6
03:40 1014 29.94 844 24.92 13.8 56.9 62 6.6 43.9
03:45 1014 29.94 843 24.89 14.2 57.5 61 6.8 44.2
03:50 1014 29.94 843 24.89 14.2 57.6 62 7.1 44.7
03:55 1014 29.94 843 24.89 13.8 56.9 63 7.1 44.7
04:00 1014 29.94 843 24.89 13.3 56 66 7.2 45
04:05 1014 29.94 843 24.89 13.1 55.7 67 7.3 45.1
04:10 1014 29.94 843 24.89 13.3 55.9 67 7.4 45.2
04:15 1014 29.94 843 24.89 13.3 56 67 7.5 45.4
04:20 1014 29.94 843 24.89 13.5 56.3 66 7.4 45.4
04:25 1014 29.94 843 24.89 13.7 56.6 65 7.4 45.3
04:30 1014 29.94 843 24.89 13.6 56.4 64 6.9 44.4
04:35 1014 29.94 843 24.89 13 55.4 67 7.1 44.8
04:40 1014 29.94 843 24.89 12.6 54.6 67 6.7 44.1
04:45 1014 29.94 843 24.89 12.8 55.1 65 6.5 43.7
04:50 1014 29.94 843 24.89 12.7 54.8 65 6.4 43.5
04:55 1014 29.94 843 24.89 12.8 55 63 6 42.8
05:00 1014 29.94 843 24.89 12.5 54.5 65 6.1 43
05:05 1014 29.94 843 24.89 12.2 54 65 6 42.8
05:10 1014 29.94 843 24.89 12.2 53.9 64 5.7 42.2
05:15 1014 29.94 843 24.89 12.5 54.5 64 5.8 42.4
05:20 1014 29.94 843 24.89 12.3 54.1 66 6.2 43.2
05:25 1014 29.94 843 24.89 11.9 53.5 69 6.4 43.5
05:30 1014 29.94 843 24.89 12.2 53.9 69 6.7 44.1
05:35 1014 29.94 843 24.89 12.7 54.9 66 6.7 44
05:40 1014 29.94 843 24.89 12.8 55.1 66 6.6 43.9
05:45 1014 29.94 843 24.89 12.5 54.5 66 6.4 43.6
05:50 1014 29.94 843 24.89 12.1 53.7 68 6.4 43.4
05:55 1014 29.94 843 24.89 12 53.5 68 6.3 43.4
06:00 1014 29.94 843 24.89 12 53.6 68 6.2 43.2
06:05 1014 29.94 843 24.89 11.9 53.4 68 6.3 43.3
06:10 1013 29.91 843 24.89 11.7 53 69 6.2 43.2
06:15 1014 29.94 843 24.89 11.9 53.4 68 6.2 43.2
06:20 1014 29.94 843 24.89 12.1 53.7 68 6.3 43.4
06:25 1014 29.94 843 24.89 12.2 54 67 6.2 43.2
06:30 1014 29.94 843 24.89 12.7 54.8 65 6.4 43.4
06:35 1014 29.94 843 24.89 12.6 54.7 67 6.7 44
06:40 1014 29.94 843 24.89 12.4 54.4 66 6.4 43.5
06:45 1014 29.94 843 24.89 12.5 54.5 67 6.6 43.9
06:50 1014 29.94 843 24.89 12.7 54.9 68 7 44.6
06:55 1014 29.94 843 24.89 12.8 55 65 6.5 43.8
07:00 1014 29.94 843 24.89 13 55.4 66 6.8 44.3
07:05 1014 29.94 843 24.89 13.2 55.7 67 7.2 45
07:10 1014 29.94 843 24.89 13.3 55.9 66 7.2 45
07:15 1014 29.94 843 24.89 13.5 56.3 66 7.4 45.4
07:20 1014 29.94 843 24.89 13.7 56.7 66 7.6 45.7
07:25 1014 29.94 843 24.89 14.2 57.5 66 8 46.3
07:30 1014 29.94 843 24.89 14.4 57.9 66 8.1 46.7
07:35 1014 29.94 843 24.89 14.5 58.1 66 8.3 46.9
07:40 1014 29.94 843 24.89 14.4 57.9 68 8.7 47.6
07:45 1014 29.94 843 24.89 14.1 57.3 71 9 48.3
07:50 1014 29.94 843 24.89 14.4 57.8 63 7.4 45.3
07:55 1014 29.94 843 24.89 14.9 58.8 65 8.3 47
08:00 1014 29.94 843 24.89 15.8 60.4 61 8.4 47.1
08:05 1013 29.91 843 24.89 16.4 61.5 58 8.1 46.6
08:10 1013 29.91 843 24.89 16.2 61.1 61 8.7 47.6
08:15 1013 29.91 843 24.89 16 60.8 61 8.6 47.5
08:20 1014 29.94 843 24.89 15.9 60.6 60 8.3 46.9
08:25 1014 29.94 843 24.89 16.4 61.4 59 8.5 47.2
08:30 1013 29.91 843 24.89 16.8 62.2 59 8.9 48
08:35 1013 29.91 843 24.89 16.4 61.6 62 9.1 48.4
08:40 1014 29.94 843 24.89 16.3 61.4 62 9 48.2
08:45 1014 29.94 843 24.89 16.4 61.5 62 9.1 48.5
08:50 1014 29.94 843 24.89 17.2 62.9 56 8.4 47.2
08:55 1014 29.94 843 24.89 18 64.3 55 8.9 48
09:00 1014 29.94 843 24.89 18 64.3 53 8.4 47
09:05 1014 29.94 843 24.89 18.1 64.6 56 9.3 48.8
09:10 1013 29.91 843 24.89 18.4 65 59 10.3 50.5
09:15 1013 29.91 843 24.89 18 64.4 58 9.8 49.7
09:20 1014 29.94 843 24.89 18.5 65.3 54 9.1 48.4
09:25 1013 29.91 843 24.89 18.7 65.7 55 9.6 49.3
09:30 1013 29.91 843 24.89 18.9 65.9 52 8.9 48
09:35 1014 29.94 843 24.89 19 66.1 51 8.6 47.5
09:40 1013 29.91 843 24.89 19.2 66.5 47 7.6 45.7
09:45 1013 29.91 842 24.86 19.1 66.5 46 7.4 45.3
09:50 1013 29.91 843 24.89 19.6 67.3 43 7 44.6
09:55 1013 29.91 842 24.86 20.1 68.2 41 6.7 44.1
10:00 1013 29.91 842 24.86 20.5 68.9 41 6.8 44.2
10:05 1013 29.91 842 24.86 20.8 69.4 39 6.5 43.7
10:10 1013 29.91 842 24.86 20.2 68.4 44 7.7 45.9
10:15 1013 29.91 842 24.86 20.2 68.3 39 6 42.8
10:20 1013 29.91 842 24.86 20.1 68.2 36 4.6 40.3
10:25 1013 29.91 842 24.86 20.6 69 38 5.9 42.7
10:30 1013 29.91 842 24.86 20.7 69.3 39 6.5 43.7
10:35 1013 29.91 842 24.86 20.9 69.6 35 4.9 40.8
10:40 1013 29.91 842 24.86 21.1 69.9 37 6 42.8
10:45 1013 29.91 842 24.86 20.7 69.3 35 4.7 40.5
10:50 1013 29.91 842 24.86 21.8 71.2 34 5.6 42
10:55 1013 29.91 842 24.86 22.3 72.2 33 5.4 41.7
11:00 1013 29.91 842 24.86 22.3 72.1 33 5.3 41.5
11:05 1013 29.91 842 24.86 22 71.5 33 5 41
11:10 1012 29.88 842 24.86 21.3 70.3 31 3.7 38.7
11:15 1013 29.91 842 24.86 21.6 70.9 32 4.3 39.7
11:20 1012 29.88 842 24.86 21.8 71.2 32 4.4 39.9
11:25 1012 29.88 842 24.86 21.5 70.7 32 4.2 39.5
11:30 1012 29.88 842 24.86 21.6 70.8 32 4.4 40
11:35 1012 29.88 842 24.86 21.9 71.3 31 4.1 39.4
11:40 1012 29.88 842 24.86 22.2 71.9 33 5.2 41.4
11:45 1012 29.88 842 24.86 22 71.6 41 8.2 46.7
11:50 1012 29.88 842 24.86 21.6 71 41 7.9 46.3
11:55 1013 29.91 842 24.86 21.8 71.2 41 8.3 46.9
12:00 1012 29.88 841 24.83 21.7 71.1 40 7.6 45.6
12:05 1012 29.88 842 24.86 22.1 71.8 38 7.4 45.3
12:10 1012 29.88 842 24.86 22.2 72 39 7.7 45.9
12:15 1012 29.88 842 24.86 23.1 73.6 36 7.3 45.1
12:20 1012 29.88 842 24.86 23.3 73.9 35 7.3 45.1
12:25 1012 29.88 842 24.86 23.3 73.9 35 7.3 45.1
12:30 1012 29.88 842 24.86 23.1 73.6 38 8.3 47
12:35 1012 29.88 842 24.86 23.2 73.7 37 7.7 45.9
12:40 1012 29.88 841 24.83 23.7 74.6 35 7.7 45.9
12:45 1012 29.88 841 24.83 24 75.2 33 7.1 44.8
12:50 1012 29.88 841 24.83 24.3 75.7 35 8 46.4
12:55 1012 29.88 841 24.83 23.7 74.7 35 7.4 45.3
13:00 1012 29.88 841 24.83 23.9 75 34 7.3 45.1
13:05 1012 29.88 841 24.83 24.1 75.3 34 7.4 45.3
13:10 1012 29.88 841 24.83 23.5 74.3 37 8.2 46.7
13:15 1012 29.88 841 24.83 23.3 74 36 7.6 45.7
13:20 1012 29.88 841 24.83 23.8 74.9 36 7.9 46.3
13:25 1012 29.88 841 24.83 22.9 73.2 39 8.4 47.1
13:30 1011 29.85 841 24.83 22.7 72.8 39 8.4 47.1
13:35 1012 29.88 841 24.83 22.9 73.1 41 9 48.2
13:40 1012 29.88 841 24.83 23.1 73.5 39 8.6 47.4
13:45 1012 29.88 841 24.83 22.8 73 40 8.6 47.4
13:50 1012 29.88 841 24.83 22.6 72.7 40 8.6 47.4
13:55 1012 29.88 841 24.83 22.7 72.8 39 8.2 46.7
14:00 1011 29.85 841 24.83 23.4 74 38 8.4 47.1
14:05 1012 29.88 841 24.83 24.3 75.8 37 9 48.2
14:10 1012 29.88 841 24.83 24.6 76.2 39 10 49.9
14:15 1012 29.88 841 24.83 24.5 76.2 35 8.4 47.1
14:20 1012 29.88 841 24.83 23.8 74.8 35 7.7 45.9
14:25 1012 29.88 841 24.83 23.6 74.5 35 7.6 45.7
14:30 1012 29.88 841 24.83 24.3 75.8 34 7.8 46.1
14:35 1011 29.85 841 24.83 23.8 74.8 36 8.1 46.6
14:40 1011 29.85 841 24.83 23 73.5 34 6.3 43.4
14:45 1011 29.85 841 24.83 23.3 74 34 6.8 44.3
14:50 1011 29.85 841 24.83 22.7 72.8 35 6.4 43.6
14:55 1012 29.88 841 24.83 22.1 71.8 37 7 44.5
15:00 1012 29.88 841 24.83 22.1 71.7 39 7.7 45.9
15:05 1011 29.85 841 24.83 23.1 73.5 35 7 44.7
15:10 1011 29.85 840 24.81 24.5 76.1 32 7.2 44.9
15:15 1012 29.88 841 24.83 24.7 76.5 32 7.2 44.9
15:20 1012 29.88 841 24.83 23.9 74.9 35 7.9 46.1
15:25 1012 29.88 841 24.83 23.5 74.2 34 7 44.7
15:30 1012 29.88 841 24.83 23.7 74.7 35 7.4 45.4
15:35 1011 29.85 841 24.83 23.2 73.7 37 7.8 46.1
15:40 1011 29.85 840 24.81 23.2 73.7 38 8.3 46.9
15:45 1011 29.85 840 24.81 23 73.4 38 8.1 46.7
15:50 1011 29.85 841 24.83 23.2 73.8 37 7.8 46
15:55 1012 29.88 841 24.83 23.3 73.9 38 8.3 46.9
16:00 1012 29.88 841 24.83 22.3 72.2 43 9.3 48.8
16:05 1011 29.85 841 24.83 21.7 71 43 8.6 47.5
16:10 1011 29.85 841 24.83 21.5 70.8 43 8.6 47.6
16:15 1012 29.88 841 24.83 21.4 70.5 45 9 48.2
16:20 1012 29.88 841 24.83 21.3 70.4 46 9.3 48.7
16:25 1012 29.88 841 24.83 21.7 71.1 45 9.4 48.9
16:30 1012 29.88 841 24.83 22.8 73.1 43 9.6 49.3
16:35 1012 29.88 841 24.83 23 73.3 43 9.7 49.5
16:40 1012 29.88 841 24.83 22.3 72.2 37 6.9 44.5
16:45 1012 29.88 842 24.86 20.9 69.7 38 6.4 43.6
16:50 1013 29.91 842 24.86 20.4 68.7 40 6.3 43.4
16:55 1013 29.91 842 24.86 20 67.9 40 6.2 43.2
17:00 1012 29.88 842 24.86 19.7 67.5 41 6.3 43.3
17:05 1012 29.88 841 24.83 19.5 67.1 42 6.4 43.5
17:10 1013 29.91 842 24.86 19.3 66.7 43 6.5 43.7
17:15 1013 29.91 842 24.86 18.8 65.8 45 6.8 44.2
17:20 1013 29.91 842 24.86 18.5 65.2 47 6.9 44.5
17:25 1013 29.91 842 24.86 18.5 65.3 49 7.7 45.8
17:30 1013 29.91 842 24.86 18.5 65.3 51 8.3 47
17:35 1013 29.91 842 24.86 18.2 64.7 58 9.8 49.7
17:40 1013 29.91 842 24.86 17.6 63.7 61 10 50.1
17:45 1013 29.91 842 24.86 16.8 62.3 63 9.8 49.6
17:50 1012 29.88 841 24.83 16.5 61.6 63 9.4 49
17:55 1012 29.88 841 24.83 16.1 61 65 9.7 49.5
18:00 1012 29.88 841 24.83 15.6 60.1 69 10.1 50.1
18:05 1012 29.88 841 24.83 15.8 60.4 64 9.1 48.4
18:10 1012 29.88 842 24.86 16.2 61.1 66 9.8 49.7
18:15 1012 29.88 841 24.83 16.2 61.1 69 10.6 51.1
18:20 1011 29.85 841 24.83 15.2 59.4 76 11 51.8
18:25 1012 29.88 841 24.83 14.7 58.5 74 10.2 50.3
18:30 1011 29.85 840 24.81 14.6 58.2 76 10.5 50.9
18:35 1011 29.85 840 24.81 14.5 58.1 77 10.5 50.9
18:40 1011 29.85 840 24.81 15.1 59.1 74 10.4 50.7
18:45 1011 29.85 840 24.81 15.6 60 68 9.9 49.7
18:50 1011 29.85 840 24.81 16.1 60.9 64 9.3 48.7
18:55 1011 29.85 840 24.81 16.6 61.9 65 10 49.9
19:00 1011 29.85 840 24.81 16.7 62.1 65 10.2 50.4
19:05 1011 29.85 840 24.81 16.7 62 64 10 50
19:10 1011 29.85 841 24.83 16.7 62 62 9.3 48.8
19:15 1011 29.85 841 24.83 16.8 62.2 61 9.3 48.7
19:20 1011 29.85 841 24.83 17.1 62.9 60 9.3 48.8
19:25 1012 29.88 841 24.83 17.4 63.4 57 9 48.3
19:30 1012 29.88 841 24.83 17.5 63.6 55 8.6 47.4
19:35 1012 29.88 841 24.83 17.6 63.7 57 9 48.3
19:40 1012 29.88 841 24.83 17.7 63.9 56 8.8 47.9
19:45 1012 29.88 841 24.83 17.8 64.1 56 8.9 48.1
19:50 1012 29.88 841 24.83 17.9 64.2 56 9 48.2
19:55 1012 29.88 841 24.83 18 64.3 54 8.7 47.7
20:00 1012 29.88 842 24.86 18.2 64.8 54 8.9 48
20:05 1013 29.91 842 24.86 18.3 64.9 55 9.1 48.3
20:10 1013 29.91 842 24.86 18.3 65 53 8.6 47.5
20:15 1013 29.91 842 24.86 18.2 64.8 53 8.5 47.3
20:20 1013 29.91 842 24.86 18 64.4 53 8.3 47
20:25 1013 29.91 842 24.86 17.8 64.1 53 8.1 46.6
20:30 1013 29.91 842 24.86 17.6 63.7 54 8.3 46.9
20:35 1013 29.91 842 24.86 17.4 63.4 54 8.1 46.5
20:40 1013 29.91 842 24.86 17.2 63 55 8.1 46.7
20:45 1013 29.91 842 24.86 17.1 62.8 53 7.6 45.7
20:50 1013 29.91 842 24.86 16.8 62.3 53 7.4 45.3
20:55 1014 29.94 843 24.89 16.6 61.9 53 7 44.5
21:00 1014 29.94 843 24.89 16.4 61.6 53 6.8 44.3
21:05 1014 29.94 843 24.89 16.4 61.4 54 7 44.6
21:10 1014 29.94 843 24.89 16.3 61.3 54 7 44.7
21:15 1014 29.94 843 24.89 16.1 61 57 7.7 45.8
21:20 1014 29.94 844 24.92 15.9 60.7 58 7.8 46.1
21:25 1014 29.94 844 24.92 15.8 60.5 61 8.4 47
21:30 1014 29.94 844 24.92 15.5 59.9 61 8.2 46.7
21:35 1015 29.97 844 24.92 15.2 59.4 61 7.9 46.3
21:40 1015 29.97 844 24.92 15 59 63 8.1 46.5
21:45 1015 29.97 844 24.92 14.9 58.8 64 8.1 46.7
21:50 1015 29.97 844 24.92 14.7 58.5 65 8.2 46.8
21:55 1015 29.97 844 24.92 14.6 58.4 65 8.3 46.9
22:00 1015 29.97 844 24.92 14.6 58.2 67 8.5 47.3
22:05 1015 29.97 844 24.92 14.4 57.9 69 8.8 47.8
22:10 1015 29.97 844 24.92 14.2 57.5 70 8.9 48
22:15 1015 29.97 844 24.92 14 57.1 70 8.7 47.7
22:20 1015 29.97 844 24.92 13.8 56.9 71 8.8 47.8
22:25 1015 29.97 844 24.92 13.7 56.6 73 9 48.2
22:30 1015 29.97 845 24.95 13.3 55.9 75 9 48.2
22:35 1015 29.97 845 24.95 13.2 55.7 75 8.9 48.1
22:40 1015 29.97 845 24.95 13.2 55.7 73 8.6 47.4
22:45 1016 30 845 24.95 13.2 55.8 73 8.5 47.2
22:50 1016 30 845 24.95 13.3 55.9 73 8.7 47.6
22:55 1016 30 845 24.95 13.2 55.7 74 8.6 47.5
23:00 1016 30 845 24.95 13.1 55.6 74 8.7 47.6
23:05 1016 30 845 24.95 13.1 55.6 74 8.6 47.5
23:10 1016 30 845 24.95 13.2 55.7 74 8.6 47.5
23:15 1016 30 845 24.95 13.2 55.8 73 8.6 47.5
23:20 1016 30 845 24.95 13.2 55.7 74 8.6 47.6
23:25 1016 30 846 24.98 13.2 55.7 74 8.6 47.5
23:30 1016 30 846 24.98 13.2 55.8 73 8.6 47.4
23:35 1017 30.03 846 24.98 13.2 55.8 73 8.5 47.3
23:40 1016 30 846 24.98 13.2 55.7 73 8.4 47.1
23:45 1016 30 846 24.98 13.1 55.6 74 8.5 47.4
23:50 1016 30 845 24.95 13.1 55.5 74 8.6 47.4
23:55 1016 30 845 24.95 13.1 55.5 74 8.5 47.4
24:00 1016 30 846 24.98 12.9 55.2 76 8.8 47.9